Hauptseite
METAR-TAF:

METAR-TAF

Flughäfen :

Flughafen Verona

Verona, Italien

Breite: 45-23N, Länge: 010-52E, Höhe: 67 m

Beobachtung

Neuester Wetterbericht von vor 23 Minuten, um 03:20 UTC
Wind 5 kt aus Nord/Nordwest
Temperatur 13°C
Luftfeuchtigkeit 82%
Luftdruck 1020 hPa
Sichtweite 10 km oder mehr
keine Wolken unter 1500 m und keine Kumulonimbus oder Gewitterwolken

METAR: LIPX 160320Z 33005KT CAVOK 13/10 Q1020

Zeit: 05:43 (03:43 UTC)

Prognose

Neuester Wetterbericht von vor 1 Stunde und 43 Minuten, um 02:00 UTC
Gültige Prognose vom 16 um 03 UTC bis 16 um 12 UTC
Wind 5 kt aus Ost/Nordost
Sichtweite 10 km oder mehr
keine Wolken unter 1500 m und keine Kumulonimbus oder Gewitterwolken

TAF: LIPX 160200Z 1603/1612 07005KT CAVOK

Wetterbeobachtungen und Prognosen von mehr als 4000 Flughäfen (METAR und TAF Bericht).

Die verfügbaren Stationen werden durch gelbe und rote Markierungen auf der Karte dargestellt.

Führen Sie die Maus auf sie, um den Namen der Station zu sehen.

Darauf klicken, um die Beobachtung von Wetterbeobachtungen und Prognosen zu sehen.

Um die Karte zu ändern : klicken Sie auf den grünen Tasten mit einem schwarzen Kreuz Zum Vergrößern, auf den grünen Button mit einem Gedankenstrich zu verkleinern, oder auf die grünen Pfeile für benachbarte Karten.


METAR-TAF: